Trans Sea — 9HA2564 — position and weather

sailwx.info

Track history (hours):
 
Tides and Currents Weather Stations Pressure Air Temp Water Temp Dewpoint Dewpoint Depression Visibility Wind Speed Wind Dir Waves Ship Positions

Trans Sea

Last reported at 2015-Jul-07 13:13 UTC. Time now 2015-Jul-07 21:57 UTC.
Position N 41°06' E 001°13'.

Length 107 m; draft 6.8 m.

Type: Ship (hazmat cat D). MMSI: 248887000.

Date/timePositionNaut miles runAvg speedWind from/ knotsBaromVisibWave heightAir tempDewpointWater temp
2015-Jul-07 13:13N 41°06' E 001°13'4 5.8
2015-Jul-07 12:33N 41°02' E 001°12'1313.4
2015-Jul-07 11:33N 40°49' E 001°09'2913.5
2015-Jul-07 09:22N 40°20' E 001°01'1213.7
2015-Jul-07 08:31N 40°09' E 000°58'1913.7
2015-Jul-07 07:06N 39°50' E 000°53'813.7
2015-Jul-07 06:30N 39°42' E 000°50'2913.5
2015-Jul-07 04:20N 39°14' E 000°40'2413.3
2015-Jul-07 02:33N 38°51' E 000°31'1412.9
2015-Jul-07 01:29N 38°38' E 000°25'1412.9
2015-Jul-07 00:26N 38°27' E 000°15'1212.8
2015-Jul-06 23:32N 38°17' E 000°07'1312.8
2015-Jul-06 22:32N 38°07' W 000°02'1212.5
2015-Jul-06 21:33N 37°57' W 000°11'1312.6
2015-Jul-06 20:33N 37°46' W 000°20'1312.7
2015-Jul-06 19:33N 37°36' W 000°29'1212.3
2015-Jul-06 18:33N 37°27' W 000°40'1212.3
2015-Jul-06 17:33N 37°19' W 000°51'1212.3
2015-Jul-06 16:33N 37°11' W 001°03'1212.2
2015-Jul-06 15:33N 37°02' W 001°14'1212.3
2015-Jul-06 14:33N 36°54' W 001°26'1212.2
2015-Jul-06 13:33N 36°46' W 001°37'1312.4
2015-Jul-06 12:32N 36°38' W 001°49'1212.4
2015-Jul-06 11:33N 36°30' W 002°00'1212.3
2015-Jul-06 10:33N 36°22' W 002°12'1312.5
2015-Jul-06 09:33N 36°20' W 002°27'1313.1
2015-Jul-06 08:33N 36°18' W 002°43'12614.0
2015-Jul-05 23:33N 35°59' W 005°18'15413.4
2015-Jul-05 12:05N 36°20' W 008°27'713.8
2015-Jul-05 11:33N 36°22' W 008°36'1613.6
2015-Jul-05 10:21N 36°25' W 008°56'3612.8
2015-Jul-05 07:31N 36°43' W 009°35'1212.8
2015-Jul-05 06:33N 36°54' W 009°40'1313.2
2015-Jul-05 05:33N 37°07' W 009°44'1313.0
2015-Jul-05 04:32N 37°20' W 009°48'1313.2
2015-Jul-05 03:33N 37°33' W 009°52'1313.3
2015-Jul-05 02:33N 37°46' W 009°56'1313.3
2015-Jul-05 01:33N 37°59' W 009°59'1413.7
2015-Jul-05 00:33N 38°12' W 010°03'1413.6
2015-Jul-04 23:33N 38°25' W 010°07'1313.4
2015-Jul-04 22:33N 38°38' W 010°11'1413.9
2015-Jul-04 21:33N 38°52' W 010°11'1414.3
2015-Jul-04 20:33N 39°05' W 010°02'1414.2
2015-Jul-04 19:33N 39°17' W 009°54'96 2.9
2015-Jul-03 10:19N 40°39' W 008°48'  
2015-Jul-01 02:33N 48°20' W 006°15'1311.7
2015-Jul-01 01:25N 48°32' W 006°05'14412.8
2015-Jun-30 14:07N 49°56' W 003°05'814.5
2015-Jun-30 13:33N 49°60' W 002°54'1515.7
2015-Jun-30 12:33N 50°03' W 002°31'1816.4
2015-Jun-30 11:27N 50°09' W 002°04'1415.6
2015-Jun-30 10:33N 50°13' W 001°43'1414.2
2015-Jun-30 09:34N 50°17' W 001°21'1412.6
2015-Jun-30 08:27N 50°20' W 001°00'1311.1
2015-Jun-30 07:16N 50°24' W 000°40'811.1
2015-Jun-30 06:33N 50°26' W 000°28'1212.0
2015-Jun-30 05:31N 50°30' W 000°10'1313.1
2015-Jun-30 04:33N 50°33' E 000°10'1414.4
2015-Jun-30 03:34N 50°37' E 000°31'1414.3
2015-Jun-30 02:34N 50°45' E 000°50'1413.8
2015-Jun-30 01:32N 50°54' E 001°07'1313.0
2015-Jun-30 00:33N 51°02' E 001°23'1211.5
2015-Jun-29 23:34N 51°09' E 001°37'1110.9
2015-Jun-29 22:34N 51°17' E 001°49'1212.2
2015-Jun-29 21:33N 51°28' E 001°59'1313.5
2015-Jun-29 20:33N 51°38' E 002°12'1514.5
2015-Jun-29 19:33N 51°49' E 002°28'1615.0
2015-Jun-29 18:29N 52°01' E 002°45'1414.7
2015-Jun-29 17:33N 52°12' E 002°59'2014.0
2015-Jun-29 16:06N 52°28' E 003°19'713.3
2015-Jun-29 15:33N 52°34' E 003°26'1312.8
2015-Jun-29 14:34N 52°44' E 003°39'1312.5
2015-Jun-29 13:33N 52°54' E 003°52'1212.5
2015-Jun-29 12:33N 53°02' E 004°07'1313.3
2015-Jun-29 11:33N 53°11' E 004°24'1413.9
2015-Jun-29 10:33N 53°24' E 004°32'1313.2
2015-Jun-29 09:34N 53°32' E 004°50'1414.2
2015-Jun-29 08:34N 53°36' E 005°13'1313.4
2015-Jun-29 07:34N 53°41' E 005°34'1312.8
2015-Jun-29 06:33N 53°45' E 005°55'2412.0
2015-Jun-29 04:34N 53°52' E 006°33'2913.0
2015-Jun-29 02:17N 53°59' E 007°22'1114.0
2015-Jun-29 01:32N 54°01' E 007°39'1414.3
2015-Jun-29 00:33N 54°01' E 008°03'1313.0
2015-Jun-28 23:33N 53°59' E 008°25'1413.8
2015-Jun-28 22:34N 53°52' E 008°45'1211.6
2015-Jun-28 21:34N 53°52' E 009°04'1010.3
2015-Jun-28 20:33N 53°50' E 009°21'1110.9
2015-Jun-28 19:33N 53°40' E 009°30'0 0.0
2015-Jun-27 17:33N 53°40' E 009°30'0 0.1
2015-Jun-27 16:21N 53°40' E 009°30'0 0.0
2015-Jun-27 15:27N 53°40' E 009°30'0 0.0
2015-Jun-27 14:33N 53°40' E 009°30'0 0.0
2015-Jun-27 13:24N 53°40' E 009°30'  
Track history (hours):
 
Tides and Currents Weather Stations Pressure Air Temp Water Temp Dewpoint Dewpoint Depression Visibility Wind Speed Wind Dir Waves Ship Positions

Trans Sea

Last reported at 2015-Jul-07 13:13 UTC. Time now 2015-Jul-07 21:57 UTC.
Position N 41°06' E 001°13'.

Length 107 m; draft 6.8 m.

Type: Ship (hazmat cat D). MMSI: 248887000.

Date/timePositionNaut miles runAvg speedWind from/ knotsBaromVisibWave heightAir tempDewpointWater temp
2015-Jul-07 13:13N 41°06' E 001°13'4 5.8
2015-Jul-07 12:33N 41°02' E 001°12'1313.4
2015-Jul-07 11:33N 40°49' E 001°09'2913.5
2015-Jul-07 09:22N 40°20' E 001°01'1213.7
2015-Jul-07 08:31N 40°09' E 000°58'1913.7
2015-Jul-07 07:06N 39°50' E 000°53'813.7
2015-Jul-07 06:30N 39°42' E 000°50'2913.5
2015-Jul-07 04:20N 39°14' E 000°40'2413.3
2015-Jul-07 02:33N 38°51' E 000°31'1412.9
2015-Jul-07 01:29N 38°38' E 000°25'1412.9
2015-Jul-07 00:26N 38°27' E 000°15'1212.8
2015-Jul-06 23:32N 38°17' E 000°07'1312.8
2015-Jul-06 22:32N 38°07' W 000°02'1212.5
2015-Jul-06 21:33N 37°57' W 000°11'1312.6
2015-Jul-06 20:33N 37°46' W 000°20'1312.7
2015-Jul-06 19:33N 37°36' W 000°29'1212.3
2015-Jul-06 18:33N 37°27' W 000°40'1212.3
2015-Jul-06 17:33N 37°19' W 000°51'1212.3
2015-Jul-06 16:33N 37°11' W 001°03'1212.2
2015-Jul-06 15:33N 37°02' W 001°14'1212.3
2015-Jul-06 14:33N 36°54' W 001°26'1212.2
2015-Jul-06 13:33N 36°46' W 001°37'1312.4
2015-Jul-06 12:32N 36°38' W 001°49'1212.4
2015-Jul-06 11:33N 36°30' W 002°00'1212.3
2015-Jul-06 10:33N 36°22' W 002°12'1312.5
2015-Jul-06 09:33N 36°20' W 002°27'1313.1
2015-Jul-06 08:33N 36°18' W 002°43'12614.0
2015-Jul-05 23:33N 35°59' W 005°18'15413.4
2015-Jul-05 12:05N 36°20' W 008°27'713.8
2015-Jul-05 11:33N 36°22' W 008°36'1613.6
2015-Jul-05 10:21N 36°25' W 008°56'3612.8
2015-Jul-05 07:31N 36°43' W 009°35'1212.8
2015-Jul-05 06:33N 36°54' W 009°40'1313.2
2015-Jul-05 05:33N 37°07' W 009°44'1313.0
2015-Jul-05 04:32N 37°20' W 009°48'1313.2
2015-Jul-05 03:33N 37°33' W 009°52'1313.3
2015-Jul-05 02:33N 37°46' W 009°56'1313.3
2015-Jul-05 01:33N 37°59' W 009°59'1413.7
2015-Jul-05 00:33N 38°12' W 010°03'1413.6
2015-Jul-04 23:33N 38°25' W 010°07'1313.4
2015-Jul-04 22:33N 38°38' W 010°11'1413.9
2015-Jul-04 21:33N 38°52' W 010°11'1414.3
2015-Jul-04 20:33N 39°05' W 010°02'1414.2
2015-Jul-04 19:33N 39°17' W 009°54'96 2.9
2015-Jul-03 10:19N 40°39' W 008°48'  
2015-Jul-01 02:33N 48°20' W 006°15'1311.7
2015-Jul-01 01:25N 48°32' W 006°05'14412.8
2015-Jun-30 14:07N 49°56' W 003°05'814.5
2015-Jun-30 13:33N 49°60' W 002°54'1515.7
2015-Jun-30 12:33N 50°03' W 002°31'1816.4
2015-Jun-30 11:27N 50°09' W 002°04'1415.6
2015-Jun-30 10:33N 50°13' W 001°43'1414.2
2015-Jun-30 09:34N 50°17' W 001°21'1412.6
2015-Jun-30 08:27N 50°20' W 001°00'1311.1
2015-Jun-30 07:16N 50°24' W 000°40'811.1
2015-Jun-30 06:33N 50°26' W 000°28'1212.0
2015-Jun-30 05:31N 50°30' W 000°10'1313.1
2015-Jun-30 04:33N 50°33' E 000°10'1414.4
2015-Jun-30 03:34N 50°37' E 000°31'1414.3
2015-Jun-30 02:34N 50°45' E 000°50'1413.8
2015-Jun-30 01:32N 50°54' E 001°07'1313.0
2015-Jun-30 00:33N 51°02' E 001°23'1211.5
2015-Jun-29 23:34N 51°09' E 001°37'1110.9
2015-Jun-29 22:34N 51°17' E 001°49'1212.2
2015-Jun-29 21:33N 51°28' E 001°59'1313.5
2015-Jun-29 20:33N 51°38' E 002°12'1514.5
2015-Jun-29 19:33N 51°49' E 002°28'1615.0
2015-Jun-29 18:29N 52°01' E 002°45'1414.7
2015-Jun-29 17:33N 52°12' E 002°59'2014.0
2015-Jun-29 16:06N 52°28' E 003°19'713.3
2015-Jun-29 15:33N 52°34' E 003°26'1312.8
2015-Jun-29 14:34N 52°44' E 003°39'1312.5
2015-Jun-29 13:33N 52°54' E 003°52'1212.5
2015-Jun-29 12:33N 53°02' E 004°07'1313.3
2015-Jun-29 11:33N 53°11' E 004°24'1413.9
2015-Jun-29 10:33N 53°24' E 004°32'1313.2
2015-Jun-29 09:34N 53°32' E 004°50'1414.2
2015-Jun-29 08:34N 53°36' E 005°13'1313.4
2015-Jun-29 07:34N 53°41' E 005°34'1312.8
2015-Jun-29 06:33N 53°45' E 005°55'2412.0
2015-Jun-29 04:34N 53°52' E 006°33'2913.0
2015-Jun-29 02:17N 53°59' E 007°22'1114.0
2015-Jun-29 01:32N 54°01' E 007°39'1414.3
2015-Jun-29 00:33N 54°01' E 008°03'1313.0
2015-Jun-28 23:33N 53°59' E 008°25'1413.8
2015-Jun-28 22:34N 53°52' E 008°45'1211.6
2015-Jun-28 21:34N 53°52' E 009°04'1010.3
2015-Jun-28 20:33N 53°50' E 009°21'1110.9
2015-Jun-28 19:33N 53°40' E 009°30'0 0.0
2015-Jun-27 17:33N 53°40' E 009°30'0 0.1
2015-Jun-27 16:21N 53°40' E 009°30'0 0.0
2015-Jun-27 15:27N 53°40' E 009°30'0 0.0
2015-Jun-27 14:33N 53°40' E 009°30'0 0.0
2015-Jun-27 13:24N 53°40' E 009°30'  

Dump ship's entire track history